Hovedside
METAR-TAF:

METAR-TAF

Lufthavner :

Khartoum, Sudan

breddegrad: 15-36N, lengdegrad: 032-33E, høyde over havet: 382 m

Gjeldene værobservasjon

Denne rapporten ble laget for 15 minutter siden, klokken 12:00 UTC
Vind 11 kt fra Nord
Temperatur 30°C
Luftfuktighet 25%
Trykk 1015 hPa
Sikt: 8000 m

METAR: HSSS 181200Z 36011KT 8000 30/08 Q1015 NOSIG

Tid: 15:15 (12:15 UTC)

Varsel

Denne rapporten ble laget for 1 time og 15 minutter siden, klokken 11:00 UTC
Varsel gyldig fra 18. klokken 12 UTC til 19. klokken 18 UTC
Vind 15 kt fra Nord med vindkast opp mot 25 kt
Sikt: 8000 m
Skyfri himmel

TAF: HSSS 181100Z 1812/1918 36015G25KT 8000 SKC

Værobservasjoner og værvarsel for over 4000 flyplasser (METAR- og TAF-rapporter).

Tilgjengelige stasjoner er representert av de røde og gule prikkene på kartet.

Hold musepekeren over prikken for å se navnet på stasjonen.

Klikk så for å se værobservasjoner og -varsler.

For å forandre kartet kan du klikke på den grønne knappen med svart kryss for å zoome inn, på den grønne knappen med strek for å zoome ut, eller på de grønne pilene for å se tilstøtende kart.


METAR-TAF: